Time,TemperatureF,DewpointF,PressureIn,WindDirection,WindDirectionDegrees,WindSpeedMPH,WindSpeedGustMPH,Humidity,HourlyPrecipIn,Conditions,Clouds,dailyrainin,SoftwareType,DateUTC
2013-04-24 00:03:00,41.0,14.0,30.00,NNE,20,6.0,9.0,33,0.00,,,0.00,weatherlink.com 1.10,2013-04-24 06:03:00,
2013-04-24 00:19:00,40.3,17.0,30.01,NNE,30,9.0,13.0,39,0.00,,,0.00,weatherlink.com 1.10,2013-04-24 06:19:00,
2013-04-24 00:34:00,38.7,17.0,30.02,East,84,2.0,14.0,42,0.00,,,0.00,weatherlink.com 1.10,2013-04-24 06:34:00,
2013-04-24 00:49:00,37.5,18.0,30.03,NNW,330,3.0,11.0,45,0.00,,,0.00,weatherlink.com 1.10,2013-04-24 06:49:00,
2013-04-24 01:04:00,37.0,17.0,30.03,NW,310,9.0,11.0,45,0.00,,,0.00,weatherlink.com 1.10,2013-04-24 07:04:00,
2013-04-24 01:19:00,36.7,18.0,30.03,NNE,15,6.0,12.0,46,0.00,,,0.00,weatherlink.com 1.10,2013-04-24 07:19:00,
2013-04-24 01:34:00,36.4,17.0,30.03,West,281,1.0,11.0,46,0.00,,,0.00,weatherlink.com 1.10,2013-04-24 07:34:00,
2013-04-24 01:49:00,36.0,17.0,30.02,NW,304,4.0,12.0,47,0.00,,,0.00,weatherlink.com 1.10,2013-04-24 07:49:00,
2013-04-24 02:04:00,35.4,17.0,30.02,East,93,2.0,8.0,48,0.00,,,0.00,weatherlink.com 1.10,2013-04-24 08:04:00,
2013-04-24 02:19:00,34.7,17.0,30.02,NE,49,0.0,7.0,49,0.00,,,0.00,weatherlink.com 1.10,2013-04-24 08:19:00,
2013-04-24 02:34:00,34.4,17.0,30.03,NNE,23,2.0,10.0,50,0.00,,,0.00,weatherlink.com 1.10,2013-04-24 08:34:00,
2013-04-24 02:49:00,33.9,17.0,30.04,NE,41,1.0,8.0,51,0.00,,,0.00,weatherlink.com 1.10,2013-04-24 08:49:00,
2013-04-24 03:04:00,33.3,17.0,30.05,North,357,5.0,5.0,52,0.00,,,0.00,weatherlink.com 1.10,2013-04-24 09:04:00,
2013-04-24 03:19:00,33.3,17.0,30.05,NNW,329,2.0,8.0,51,0.00,,,0.00,weatherlink.com 1.10,2013-04-24 09:19:00,
2013-04-24 03:34:00,33.6,17.0,30.04,WSW,250,3.0,12.0,51,0.00,,,0.00,weatherlink.com 1.10,2013-04-24 09:34:00,
2013-04-24 03:49:00,33.2,17.0,30.05,NE,38,5.0,10.0,52,0.00,,,0.00,weatherlink.com 1.10,2013-04-24 09:49:00,
2013-04-24 04:04:00,32.7,17.0,30.06,East,81,4.0,9.0,53,0.00,,,0.00,weatherlink.com 1.10,2013-04-24 10:04:00,
2013-04-24 04:19:00,31.9,17.0,30.07,North,354,2.0,7.0,54,0.00,,,0.00,weatherlink.com 1.10,2013-04-24 10:19:00,
2013-04-24 04:34:00,31.4,17.0,30.08,WNW,288,1.0,6.0,55,0.00,,,0.00,weatherlink.com 1.10,2013-04-24 10:34:00,
2013-04-24 04:49:00,31.0,17.0,30.09,NW,309,3.0,5.0,56,0.00,,,0.00,weatherlink.com 1.10,2013-04-24 10:49:00,
2013-04-24 05:04:00,30.5,17.0,30.10,WNW,295,0.0,3.0,57,0.00,,,0.00,weatherlink.com 1.10,2013-04-24 11:04:00,
2013-04-24 05:20:00,29.9,17.0,30.11,NW,311,0.0,2.0,58,0.00,,,0.00,weatherlink.com 1.10,2013-04-24 11:20:00,
2013-04-24 05:35:00,29.6,16.0,30.11,WNW,284,0.0,2.0,58,0.00,,,0.00,weatherlink.com 1.10,2013-04-24 11:35:00,
2013-04-24 05:50:00,29.7,16.0,30.11,NNE,30,2.0,6.0,57,0.00,,,0.00,weatherlink.com 1.10,2013-04-24 11:50:00,
2013-04-24 06:05:00,29.7,16.0,30.11,NNE,17,8.0,9.0,58,0.00,,,0.00,weatherlink.com 1.10,2013-04-24 12:05:00,
2013-04-24 06:20:00,29.6,16.0,30.12,NW,315,3.0,11.0,58,0.00,,,0.00,weatherlink.com 1.10,2013-04-24 12:20:00,
2013-04-24 06:35:00,29.6,16.0,30.13,East,87,5.0,11.0,58,0.00,,,0.00,weatherlink.com 1.10,2013-04-24 12:35:00,
2013-04-24 06:50:00,30.4,17.0,30.14,NE,37,4.0,14.0,57,0.00,,,0.00,weatherlink.com 1.10,2013-04-24 12:50:00,
2013-04-24 07:05:00,31.0,16.0,30.15,NNE,15,7.0,15.0,55,0.00,,,0.00,weatherlink.com 1.10,2013-04-24 13:05:00,
2013-04-24 07:20:00,31.4,16.0,30.16,NNE,18,5.0,16.0,54,0.00,,,0.00,weatherlink.com 1.10,2013-04-24 13:20:00,
2013-04-24 07:35:00,32.1,16.0,30.17,North,355,6.0,14.0,52,0.00,,,0.00,weatherlink.com 1.10,2013-04-24 13:35:00,
2013-04-24 07:50:00,33.2,17.0,30.18,NNW,332,4.0,13.0,51,0.00,,,0.00,weatherlink.com 1.10,2013-04-24 13:50:00,
2013-04-24 08:05:00,33.8,16.0,30.18,NE,44,7.0,15.0,49,0.00,,,0.00,weatherlink.com 1.10,2013-04-24 14:05:00,
2013-04-24 08:20:00,34.3,16.0,30.19,NE,55,9.0,15.0,48,0.00,,,0.00,weatherlink.com 1.10,2013-04-24 14:20:00,
2013-04-24 08:35:00,35.4,16.0,30.19,NE,48,7.0,14.0,46,0.00,,,0.00,weatherlink.com 1.10,2013-04-24 14:35:00,
2013-04-24 08:50:00,36.4,17.0,30.18,NE,49,10.0,13.0,45,0.00,,,0.00,weatherlink.com 1.10,2013-04-24 14:50:00,
2013-04-24 09:05:00,37.7,17.0,30.18,NNE,25,5.0,11.0,43,0.00,,,0.00,weatherlink.com 1.10,2013-04-24 15:05:00,
2013-04-24 09:20:00,39.0,17.0,30.18,NE,42,12.0,12.0,41,0.00,,,0.00,weatherlink.com 1.10,2013-04-24 15:20:00,
2013-04-24 09:35:00,40.5,17.0,30.17,NE,56,3.0,9.0,39,0.00,,,0.00,weatherlink.com 1.10,2013-04-24 15:35:00,
2013-04-24 09:50:00,41.4,17.0,30.17,NW,305,2.0,10.0,37,0.00,,,0.00,weatherlink.com 1.10,2013-04-24 15:50:00,
2013-04-24 10:05:00,43.0,16.0,30.17,NNE,22,2.0,8.0,34,0.00,,,0.00,weatherlink.com 1.10,2013-04-24 16:05:00,
2013-04-24 10:20:00,44.8,16.0,30.16,ESE,103,5.0,7.0,32,0.00,,,0.00,weatherlink.com 1.10,2013-04-24 16:20:00,
2013-04-24 10:35:00,46.4,16.0,30.16,NE,36,8.0,10.0,29,0.00,,,0.00,weatherlink.com 1.10,2013-04-24 16:35:00,
2013-04-24 10:50:00,47.6,16.0,30.16,East,93,3.0,6.0,28,0.00,,,0.00,weatherlink.com 1.10,2013-04-24 16:50:00,
2013-04-24 11:05:00,49.0,16.0,30.16,ENE,71,3.0,6.0,27,0.00,,,0.00,weatherlink.com 1.10,2013-04-24 17:05:00,
2013-04-24 11:20:00,52.0,16.0,30.15,ESE,105,5.0,7.0,24,0.00,,,0.00,weatherlink.com 1.10,2013-04-24 17:20:00,
2013-04-24 11:35:00,52.2,14.0,30.15,ESE,108,5.0,7.0,22,0.00,,,0.00,weatherlink.com 1.10,2013-04-24 17:35:00,
2013-04-24 11:51:00,54.4,15.0,30.14,ENE,78,2.0,6.0,21,0.00,,,0.00,weatherlink.com 1.10,2013-04-24 17:51:00,
2013-04-24 12:06:00,56.3,14.0,30.14,SE,142,2.0,6.0,19,0.00,,,0.00,weatherlink.com 1.10,2013-04-24 18:06:00,
2013-04-24 12:21:00,58.0,13.0,30.13,SE,127,2.0,8.0,17,0.00,,,0.00,weatherlink.com 1.10,2013-04-24 18:21:00,
2013-04-24 12:36:00,59.0,14.0,30.12,ESE,105,2.0,5.0,17,0.00,,,0.00,weatherlink.com 1.10,2013-04-24 18:36:00,
2013-04-24 12:51:00,59.8,13.0,30.11,SW,214,1.0,5.0,16,0.00,,,0.00,weatherlink.com 1.10,2013-04-24 18:51:00,
2013-04-24 13:06:00,59.7,12.0,30.10,ESE,113,1.0,11.0,15,0.00,,,0.00,weatherlink.com 1.10,2013-04-24 19:06:00,
2013-04-24 13:21:00,61.0,13.0,30.10,SSE,162,4.0,7.0,15,0.00,,,0.00,weatherlink.com 1.10,2013-04-24 19:21:00,
2013-04-24 13:36:00,61.9,14.0,30.09,ESE,121,4.0,8.0,15,0.00,,,0.00,weatherlink.com 1.10,2013-04-24 19:36:00,
2013-04-24 13:51:00,62.8,13.0,30.08,SE,126,1.0,9.0,14,0.00,,,0.00,weatherlink.com 1.10,2013-04-24 19:51:00,
2013-04-24 14:06:00,63.7,15.0,30.08,WSW,242,3.0,8.0,15,0.00,,,0.00,weatherlink.com 1.10,2013-04-24 20:06:00,
2013-04-24 14:21:00,65.2,13.0,30.07,WNW,293,0.0,5.0,13,0.00,,,0.00,weatherlink.com 1.10,2013-04-24 20:21:00,
2013-04-24 14:36:00,64.9,13.0,30.06,WNW,293,2.0,4.0,13,0.00,,,0.00,weatherlink.com 1.10,2013-04-24 20:36:00,
2013-04-24 14:51:00,65.3,13.0,30.05,West,272,2.0,5.0,13,0.00,,,0.00,weatherlink.com 1.10,2013-04-24 20:51:00,
2013-04-24 15:06:00,66.3,14.0,30.05,West,272,0.0,6.0,13,0.00,,,0.00,weatherlink.com 1.10,2013-04-24 21:06:00,
2013-04-24 15:21:00,69.1,14.0,30.04,SSW,205,0.0,5.0,12,0.00,,,0.00,weatherlink.com 1.10,2013-04-24 21:21:00,
2013-04-24 15:36:00,67.9,13.0,30.03,NW,308,0.0,7.0,12,0.00,,,0.00,weatherlink.com 1.10,2013-04-24 21:36:00,
2013-04-24 15:51:00,69.1,14.0,30.02,WNW,288,1.0,5.0,12,0.00,,,0.00,weatherlink.com 1.10,2013-04-24 21:51:00,
2013-04-24 16:06:00,70.3,15.0,30.02,SSW,195,2.0,3.0,12,0.00,,,0.00,weatherlink.com 1.10,2013-04-24 22:06:00,
2013-04-24 16:21:00,71.2,14.0,30.01,East,101,0.0,4.0,11,0.00,,,0.00,weatherlink.com 1.10,2013-04-24 22:21:00,
2013-04-24 16:36:00,70.8,14.0,30.00,East,88,0.0,6.0,11,0.00,,,0.00,weatherlink.com 1.10,2013-04-24 22:36:00,
2013-04-24 16:51:00,70.7,14.0,30.00,WSW,256,4.0,7.0,11,0.00,,,0.00,weatherlink.com 1.10,2013-04-24 22:51:00,
2013-04-24 17:06:00,70.5,13.0,30.00,ESE,102,6.0,7.0,11,0.00,,,0.00,weatherlink.com 1.10,2013-04-24 23:06:00,
2013-04-24 17:21:00,71.5,14.0,30.00,WSW,254,2.0,6.0,11,0.00,,,0.00,weatherlink.com 1.10,2013-04-24 23:21:00,
2013-04-24 17:36:00,71.8,14.0,30.00,SSW,209,2.0,6.0,11,0.00,,,0.00,weatherlink.com 1.10,2013-04-24 23:36:00,
2013-04-24 17:51:00,70.9,14.0,30.00,WNW,300,1.0,4.0,11,0.00,,,0.00,weatherlink.com 1.10,2013-04-24 23:51:00,
2013-04-24 18:06:00,70.3,13.0,30.00,WNW,295,2.0,4.0,11,0.00,,,0.00,weatherlink.com 1.10,2013-04-25 00:06:00,
2013-04-24 18:21:00,68.9,12.0,30.00,NW,316,0.0,3.0,11,0.00,,,0.00,weatherlink.com 1.10,2013-04-25 00:21:00,
2013-04-24 18:36:00,67.9,15.0,30.00,East,101,3.0,4.0,13,0.00,,,0.00,weatherlink.com 1.10,2013-04-25 00:36:00,
2013-04-24 18:51:00,67.2,15.0,30.00,East,96,0.0,2.0,13,0.00,,,0.00,weatherlink.com 1.10,2013-04-25 00:51:00,
2013-04-24 19:06:00,66.8,14.0,30.00,East,96,0.0,1.0,13,0.00,,,0.00,weatherlink.com 1.10,2013-04-25 01:06:00,
2013-04-24 19:21:00,66.1,15.0,30.00,SSW,210,0.0,2.0,14,0.00,,,0.00,weatherlink.com 1.10,2013-04-25 01:21:00,
2013-04-24 19:36:00,65.6,18.0,30.01,SSW,210,0.0,2.0,16,0.00,,,0.00,weatherlink.com 1.10,2013-04-25 01:36:00,
2013-04-24 19:51:00,65.2,18.0,30.01,SW,221,0.0,2.0,16,0.00,,,0.00,weatherlink.com 1.10,2013-04-25 01:51:00,
2013-04-24 20:06:00,64.9,17.0,30.02,SW,221,0.0,1.0,16,0.00,,,0.00,weatherlink.com 1.10,2013-04-25 02:06:00,
2013-04-24 20:36:00,64.9,17.0,30.02,SE,130,0.0,1.0,16,0.00,,,0.00,weatherlink.com 1.10,2013-04-25 02:36:00,
2013-04-24 20:51:00,63.8,18.0,30.03,SE,129,0.0,1.0,17,0.00,,,0.00,weatherlink.com 1.10,2013-04-25 02:51:00,
2013-04-24 21:06:00,63.2,19.0,30.03,SE,129,0.0,1.0,18,0.00,,,0.00,weatherlink.com 1.10,2013-04-25 03:06:00,
2013-04-24 21:22:00,63.2,20.0,30.03,SE,129,0.0,0.0,19,0.00,,,0.00,weatherlink.com 1.10,2013-04-25 03:22:00,
2013-04-24 21:37:00,62.4,19.0,30.03,North,357,0.0,1.0,19,0.00,,,0.00,weatherlink.com 1.10,2013-04-25 03:37:00,
2013-04-24 21:52:00,62.2,19.0,30.04,NNW,340,1.0,1.0,19,0.00,,,0.00,weatherlink.com 1.10,2013-04-25 03:52:00,
2013-04-24 22:07:00,61.4,20.0,30.04,NNW,339,0.0,0.0,20,0.00,,,0.00,weatherlink.com 1.10,2013-04-25 04:07:00,
2013-04-24 22:22:00,60.1,20.0,30.04,NNW,340,0.0,0.0,21,0.00,,,0.00,weatherlink.com 1.10,2013-04-25 04:22:00,
2013-04-24 22:37:00,59.0,20.0,30.04,NNW,336,0.0,0.0,22,0.00,,,0.00,weatherlink.com 1.10,2013-04-25 04:37:00,
2013-04-24 22:52:00,56.8,19.0,30.04,NNW,336,0.0,0.0,23,0.00,,,0.00,weatherlink.com 1.10,2013-04-25 04:52:00,
2013-04-24 23:07:00,56.6,20.0,30.04,West,266,0.0,1.0,24,0.00,,,0.00,weatherlink.com 1.10,2013-04-25 05:07:00,
2013-04-24 23:22:00,55.9,17.0,30.03,NW,321,1.0,2.0,22,0.00,,,0.00,weatherlink.com 1.10,2013-04-25 05:22:00,
2013-04-24 23:37:00,55.3,17.0,30.03,NW,321,0.0,1.0,22,0.00,,,0.00,weatherlink.com 1.10,2013-04-25 05:37:00,
2013-04-24 23:52:00,54.9,17.0,30.03,NW,319,0.0,1.0,22,0.00,,,0.00,weatherlink.com 1.10,2013-04-25 05:52:00,